Brandy Bar — WDF7323 — position and weather

sailwx.info

Track history (hours):
 
Tides and Currents Weather Stations Pressure Air Temp Water Temp Dewpoint Dewpoint Depression Visibility Wind Speed Wind Dir Waves Ship Positions

Brandy Bar

Owner: Brandy Bar, Tiburon, CA. More information available from US FCC via Universal Licensing System and Coast Guard Vessel Documentation Center.

Last reported at 2015-Jul-02 22:33 UTC. Time now 2015-Jul-02 23:10 UTC.
Position N 37°52' W 122°27'.

Type: Towing. MMSI: 367483310.

Date/timePositionNaut miles runAvg speedWind from/ knotsBaromVisibWave heightAir tempDewpointWater temp
2015-Jul-02 22:33N 37°52' W 122°27'0 0.0
2015-Jul-02 21:33N 37°52' W 122°27'0 0.0
2015-Jul-02 20:33N 37°52' W 122°27'0 0.0
2015-Jul-02 19:33N 37°52' W 122°27'0 0.0
2015-Jul-02 18:33N 37°52' W 122°27'0 0.0
2015-Jul-02 17:33N 37°52' W 122°27'0 0.0
2015-Jul-02 16:33N 37°52' W 122°27'0 0.0
2015-Jul-02 12:33N 37°52' W 122°27'9 8.7
2015-Jul-02 11:33N 38°00' W 122°24'9 8.5
2015-Jul-02 10:33N 38°04' W 122°14'7 6.6
2015-Jul-02 09:34N 38°03' W 122°05'6 6.0
2015-Jul-02 08:34N 38°03' W 121°58'6 5.7
2015-Jul-02 07:34N 38°02' W 121°51'0 0.2
2015-Jul-02 06:33N 38°02' W 121°51'0 0.0
2015-Jul-02 04:09N 38°02' W 121°51'0 0.0
2015-Jul-02 02:31N 38°02' W 121°51'0 0.0
2015-Jul-02 01:33N 38°02' W 121°51'0 0.4
2015-Jul-02 00:25N 38°02' W 121°50'0 0.0
2015-Jul-01 23:33N 38°02' W 121°50'0 0.0
2015-Jul-01 05:33N 38°02' W 121°50'0 0.0
2015-Jul-01 04:33N 38°02' W 121°50'0 0.0
2015-Jul-01 03:33N 38°02' W 121°50'0 0.0
2015-Jul-01 02:28N 38°02' W 121°50'0 0.0
2015-Jul-01 01:29N 38°02' W 121°50'0 0.0
2015-Jul-01 00:28N 38°02' W 121°50'0 0.0
2015-Jun-30 23:17N 38°02' W 121°50'0 0.0
2015-Jun-30 21:20N 38°02' W 121°50'0 0.0
2015-Jun-30 19:11N 38°02' W 121°50'0 0.1
2015-Jun-30 18:20N 38°02' W 121°50'0 0.1
2015-Jun-30 17:31N 38°02' W 121°50'0 0.0
2015-Jun-30 16:33N 38°02' W 121°50'  
Track history (hours):
 
Tides and Currents Weather Stations Pressure Air Temp Water Temp Dewpoint Dewpoint Depression Visibility Wind Speed Wind Dir Waves Ship Positions

Brandy Bar

Owner: Brandy Bar, Tiburon, CA. More information available from US FCC via Universal Licensing System and Coast Guard Vessel Documentation Center.

Last reported at 2015-Jul-02 22:33 UTC. Time now 2015-Jul-02 23:10 UTC.
Position N 37°52' W 122°27'.

Type: Towing. MMSI: 367483310.

Date/timePositionNaut miles runAvg speedWind from/ knotsBaromVisibWave heightAir tempDewpointWater temp
2015-Jul-02 22:33N 37°52' W 122°27'0 0.0
2015-Jul-02 21:33N 37°52' W 122°27'0 0.0
2015-Jul-02 20:33N 37°52' W 122°27'0 0.0
2015-Jul-02 19:33N 37°52' W 122°27'0 0.0
2015-Jul-02 18:33N 37°52' W 122°27'0 0.0
2015-Jul-02 17:33N 37°52' W 122°27'0 0.0
2015-Jul-02 16:33N 37°52' W 122°27'0 0.0
2015-Jul-02 12:33N 37°52' W 122°27'9 8.7
2015-Jul-02 11:33N 38°00' W 122°24'9 8.5
2015-Jul-02 10:33N 38°04' W 122°14'7 6.6
2015-Jul-02 09:34N 38°03' W 122°05'6 6.0
2015-Jul-02 08:34N 38°03' W 121°58'6 5.7
2015-Jul-02 07:34N 38°02' W 121°51'0 0.2
2015-Jul-02 06:33N 38°02' W 121°51'0 0.0
2015-Jul-02 04:09N 38°02' W 121°51'0 0.0
2015-Jul-02 02:31N 38°02' W 121°51'0 0.0
2015-Jul-02 01:33N 38°02' W 121°51'0 0.4
2015-Jul-02 00:25N 38°02' W 121°50'0 0.0
2015-Jul-01 23:33N 38°02' W 121°50'0 0.0
2015-Jul-01 05:33N 38°02' W 121°50'0 0.0
2015-Jul-01 04:33N 38°02' W 121°50'0 0.0
2015-Jul-01 03:33N 38°02' W 121°50'0 0.0
2015-Jul-01 02:28N 38°02' W 121°50'0 0.0
2015-Jul-01 01:29N 38°02' W 121°50'0 0.0
2015-Jul-01 00:28N 38°02' W 121°50'0 0.0
2015-Jun-30 23:17N 38°02' W 121°50'0 0.0
2015-Jun-30 21:20N 38°02' W 121°50'0 0.0
2015-Jun-30 19:11N 38°02' W 121°50'0 0.1
2015-Jun-30 18:20N 38°02' W 121°50'0 0.1
2015-Jun-30 17:31N 38°02' W 121°50'0 0.0
2015-Jun-30 16:33N 38°02' W 121°50'  

Dump ship's entire track history